Ciudad de Panamá, Panamá

10:11 PM EST en Octubre 21, 2014 (GMT -0500)
Marcos A Gelabert International | Change Station
CLOSE
Current Station
Aeropuerto
Location: Panama,
Altura: 43 ft
Estaciones meteorológicas cercanas

Alt 43 ft 8.98 °N, 79.52 °W | Updated 11 minutes ago

Scattered Clouds
Nubes dispersas
82 ° F
Sensación térmica 91 ° F
N
2
Viento Variable Viento desde Variable

Hoy
Alta -- | Baja -- ° F
--% Posibilidad de precipitaciones
Ayer
Alta -- | Baja -- ° F
Precip. -- pul
6:06 AM 5:59 PM
Creciente menguante, 3% visible
Presión 29.86 pul
Visibilidad 6.2 Millas
Nubes Nubes dispersas 1800 ft
Nubes dispersas 8000 ft
Índice de calor 91 ° F
Punto de rocío 77 ° F
Humedad 84%
Precipitaciones 0.00 pul
Espesor de la nieve No disponible.
UV 0 de una escala de 12
Polen No disponible.
Calidad del aire No disponible.
Flu Activity No disponible.
METAR MPMG 220300Z VRB02KT 9999 SCT018 SCT080 28/25 Q1011 NOSIG

More Conditions Fewer Conditions

Presión 29.86 pul
Visibilidad 6.2 Millas
Nubes Nubes dispersas 1800 ft
Nubes dispersas 8000 ft
Índice de calor 91 ° F
Punto de rocío 77 ° F
Humedad 84%
Precipitaciones 0.00 pul
Espesor de la nieve No disponible.
UV 0 de una escala de 12
Polen No disponible.
Calidad del aire No disponible.
Flu Activity No disponible.
METAR MPMG 220300Z VRB02KT 9999 SCT018 SCT080 28/25 Q1011 NOSIG

More Conditions Fewer Conditions

10-Day Weather Forecast

Almanac

Astronomía

Oct. 21, 2014 Salida Puesta
Hora real 6:06 AM EST 5:59 PM EST
Crepúsculo civil 5:45 AM EST 6:20 PM EST
Crepúsculo náutico 5:20 AM EST 6:45 PM EST
Crepúsculo astronómico 4:55 AM EST 7:09 PM EST
Luna 4:14 AM EST (10/21) 4:32 PM EST (10/21)
Horas de luz 12h 35m
Horas de luz
11h 53m
Tomorrow will be 0m 27s shorter.
Creciente menguante, 3% of the Moon is Illuminated
Hoy
Creciente menguante
Oct 23
Nueva
Oct 30
Cuarto creciente
Nov 6
Luna llena
Nov 14
Cuarto menguante

Extremos de hoy

Máximos del país Bajas del país

Community

WunderPhotos

Upload Photos

1,763,869 ¡fotos cargadas!

Nearby

Calidad del aire

Not available.

Grosos de nieve

Not available.

Actividad de terremotos

Ciudad Distance Mag. Tiempo y dato
No hay informes recientes de la actividad sísmica.
Magnitud mínima muestra es 2,5.

Temperaturas de aguas costeras

Lugar Temperatura
Sin partes meteorológicos de las estaciones

Estaciones meteorológicas cercanas